Time;durP1;ratioP1;P1;durP2;ratioP2;P2;SDS_P1;SDS_P2;PMS_P1;PMS_P2;Temp;Humidity;BMP_temperature;BMP_pressure;BME280_temperature;BME280_humidity;BME280_pressure;Samples;Min_cycle;Max_cycle;Signal;HPM_P1;HPM_P2
2023/11/27 00:00:51;;;;;;;112.72;34.88;;;-0.50;69.10;;;;;;4832670;29;20059;-96
2023/11/27 00:03:19;;;;;;;28.85;10.25;;;-0.70;69.60;;;;;;4833690;29;20046;-96
2023/11/27 00:05:46;;;;;;;25.70;10.57;;;-0.90;70.10;;;;;;4849785;29;20087;-96
2023/11/27 00:08:13;;;;;;;20.40;8.50;;;-1.00;70.20;;;;;;4834495;29;20515;-96
2023/11/27 00:10:42;;;;;;;19.40;7.85;;;-1.20;70.80;;;;;;4832649;29;20416;-96
2023/11/27 00:13:09;;;;;;;54.03;23.35;;;-1.30;71.00;;;;;;4832930;29;20046;-96
2023/11/27 00:15:36;;;;;;;24.17;9.38;;;-1.40;71.40;;;;;;4832156;29;20059;-96
2023/11/27 00:18:03;;;;;;;32.07;12.53;;;-1.40;71.70;;;;;;4832393;29;20079;-96
2023/11/27 00:20:31;;;;;;;61.97;23.55;;;-1.30;71.70;;;;;;4848863;29;20493;-96
2023/11/27 00:22:58;;;;;;;25.63;9.30;;;-1.40;71.30;;;;;;4834174;29;20535;-96
2023/11/27 00:25:28;;;;;;;26.83;8.73;;;-1.40;71.80;;;;;;4833831;29;20393;-96
2023/11/27 00:27:55;;;;;;;18.48;7.22;;;-1.40;71.60;;;;;;4833454;29;20053;-96
2023/11/27 00:30:22;;;;;;;33.43;13.00;;;-1.40;72.20;;;;;;4833130;29;20056;-96
2023/11/27 00:32:49;;;;;;;21.83;8.70;;;-1.50;72.20;;;;;;4833131;29;20057;-96
2023/11/27 00:35:16;;;;;;;19.13;8.18;;;-1.40;72.30;;;;;;4833347;29;20077;-96
2023/11/27 00:37:44;;;;;;;58.80;17.90;;;-1.50;71.60;;;;;;4848639;29;20416;-96
2023/11/27 00:40:11;;;;;;;33.15;9.13;;;-1.60;71.60;;;;;;4833008;29;20572;-96
2023/11/27 00:42:38;;;;;;;18.90;5.37;;;-1.80;72.30;;;;;;4832039;29;20053;-96
2023/11/27 00:45:06;;;;;;;16.75;6.82;;;-1.90;71.90;;;;;;4847255;29;20054;-96
2023/11/27 00:47:34;;;;;;;15.98;5.05;;;-2.00;72.50;;;;;;4832086;29;20055;-96
2023/11/27 00:50:03;;;;;;;16.98;5.03;;;-2.00;72.70;;;;;;4832001;29;20052;-95
2023/11/27 00:52:31;;;;;;;15.23;5.30;;;-2.00;72.70;;;;;;4832266;29;20049;-96
2023/11/27 00:54:58;;;;;;;11.87;4.00;;;-2.00;72.70;;;;;;4832039;29;20094;-96
2023/11/27 00:57:25;;;;;;;12.43;4.60;;;-1.90;73.40;;;;;;4847174;29;20059;-96
2023/11/27 00:59:52;;;;;;;11.73;4.32;;;-1.70;73.00;;;;;;4832170;29;20049;-96
2023/11/27 01:02:20;;;;;;;13.13;4.78;;;-1.60;72.80;;;;;;4832072;29;20109;-96
2023/11/27 01:04:48;;;;;;;24.98;6.63;;;-1.50;72.30;;;;;;4832548;29;20078;-96
2023/11/27 01:07:15;;;;;;;19.10;6.00;;;-1.40;72.00;;;;;;4848094;29;20416;-95
2023/11/27 01:09:42;;;;;;;13.52;5.00;;;-1.40;71.90;;;;;;4832874;29;20057;-96
2023/11/27 01:12:09;;;;;;;12.95;4.10;;;-1.50;71.80;;;;;;4847240;29;20132;-96
2023/11/27 01:14:36;;;;;;;12.02;4.18;;;-1.60;72.60;;;;;;4848016;29;20057;-95
2023/11/27 01:17:04;;;;;;;10.77;3.97;;;-1.60;73.10;;;;;;4848319;29;20147;-95
2023/11/27 01:19:32;;;;;;;10.33;3.70;;;-1.50;73.00;;;;;;4846883;29;20050;-95
2023/11/27 01:21:59;;;;;;;11.25;3.60;;;-1.50;72.80;;;;;;4831842;29;20057;-95
2023/11/27 01:24:26;;;;;;;11.80;4.00;;;-1.50;72.90;;;;;;4846578;29;20085;-96
2023/11/27 01:26:53;;;;;;;13.68;4.90;;;-1.50;72.70;;;;;;4846381;29;20049;-95
2023/11/27 01:29:21;;;;;;;16.80;5.95;;;-1.50;72.90;;;;;;4846649;29;20056;-96
2023/11/27 01:31:49;;;;;;;9.73;4.10;;;-1.40;72.70;;;;;;4831756;29;20143;-95
2023/11/27 01:34:18;;;;;;;10.93;3.85;;;-1.40;73.10;;;;;;4831750;29;20049;-96
2023/11/27 01:36:45;;;;;;;11.48;3.97;;;-1.50;72.80;;;;;;4831333;29;20576;-95
2023/11/27 01:39:14;;;;;;;11.82;4.25;;;-1.50;72.90;;;;;;4832659;29;20076;-96
2023/11/27 01:41:41;;;;;;;10.98;3.83;;;-1.50;73.30;;;;;;4832005;29;20088;-96
2023/11/27 01:44:10;;;;;;;10.50;4.63;;;-1.50;73.60;;;;;;4832773;29;20049;-96
2023/11/27 01:46:46;;;;;;;12.30;4.40;;;-1.50;73.30;;;;;;4832602;29;20140;-96
2023/11/27 01:49:13;;;;;;;11.82;4.53;;;-1.50;73.30;;;;;;4847229;29;20090;-96
2023/11/27 01:51:41;;;;;;;12.30;4.80;;;-1.50;73.30;;;;;;4835003;29;20054;-96
2023/11/27 01:54:10;;;;;;;10.70;3.97;;;-1.30;73.20;;;;;;4835005;29;20512;-96
2023/11/27 01:56:37;;;;;;;12.63;4.40;;;-1.20;73.10;;;;;;4835831;29;20073;-96
2023/11/27 01:59:04;;;;;;;13.85;5.40;;;-1.20;72.70;;;;;;4847602;29;20046;-93
2023/11/27 02:05:39;;;;;;;13.82;3.95;;;-1.20;72.20;;;;;;4687026;29;20057;-87
2023/11/27 02:08:06;;;;;;;14.77;5.82;;;-1.40;72.70;;;;;;4819274;29;20134;-88
2023/11/27 02:10:33;;;;;;;13.83;5.43;;;-1.40;73.20;;;;;;4829364;29;20053;-87
2023/11/27 02:13:02;;;;;;;10.65;3.58;;;-1.40;73.00;;;;;;4817785;29;20112;-87
2023/11/27 02:15:30;;;;;;;12.60;4.53;;;-1.40;72.80;;;;;;4813415;29;20058;-88
2023/11/27 02:17:57;;;;;;;11.98;3.83;;;-1.40;73.30;;;;;;4817529;29;20046;-87
2023/11/27 02:20:25;;;;;;;11.80;4.20;;;-1.40;73.20;;;;;;4817318;29;20057;-88
2023/11/27 02:22:52;;;;;;;11.30;4.40;;;-1.30;73.20;;;;;;4826915;29;20141;-87
2023/11/27 02:25:19;;;;;;;8.25;3.83;;;-1.20;73.00;;;;;;4822153;29;20070;-87
2023/11/27 02:27:46;;;;;;;10.68;3.60;;;-1.20;72.80;;;;;;4820457;29;20466;-87
2023/11/27 02:30:14;;;;;;;9.77;3.72;;;-1.10;73.20;;;;;;4821434;29;20065;-87
2023/11/27 02:32:41;;;;;;;11.38;4.40;;;-1.00;73.20;;;;;;4833489;29;20046;-88
2023/11/27 02:35:08;;;;;;;10.57;4.43;;;-1.00;72.70;;;;;;4836384;29;20137;-87
2023/11/27 02:37:35;;;;;;;6.53;2.90;;;-0.90;72.60;;;;;;4836289;29;20049;-88
2023/11/27 02:40:03;;;;;;;9.45;4.18;;;-0.90;71.90;;;;;;4822234;29;20042;-87
2023/11/27 02:42:30;;;;;;;10.60;3.63;;;-1.00;72.40;;;;;;4820916;29;20103;-87
2023/11/27 02:44:57;;;;;;;10.00;3.70;;;-1.00;72.60;;;;;;4826418;29;20515;-88
2023/11/27 02:47:24;;;;;;;11.63;3.13;;;-1.10;72.50;;;;;;4823110;29;20062;-87
2023/11/27 02:49:52;;;;;;;9.38;3.10;;;-1.00;72.40;;;;;;4819507;29;20043;-88
2023/11/27 02:52:20;;;;;;;9.65;3.55;;;-1.00;72.60;;;;;;4831322;29;20043;-87
2023/11/27 02:54:47;;;;;;;9.13;3.05;;;-1.00;72.30;;;;;;4846307;29;20050;-87
2023/11/27 02:57:14;;;;;;;12.65;3.20;;;-1.00;73.00;;;;;;4818606;29;20043;-88
2023/11/27 02:59:44;;;;;;;10.93;3.67;;;-1.00;72.80;;;;;;4835296;29;20099;-87
2023/11/27 03:02:12;;;;;;;9.60;3.85;;;-1.00;73.30;;;;;;4820852;29;20057;-87
2023/11/27 03:04:39;;;;;;;10.48;3.63;;;-1.00;73.30;;;;;;4825651;29;20054;-88
2023/11/27 03:07:06;;;;;;;11.20;3.83;;;-0.90;73.60;;;;;;4836505;29;20046;-88
2023/11/27 03:09:33;;;;;;;10.20;3.67;;;-1.00;73.20;;;;;;4836130;29;20046;-88
2023/11/27 03:12:01;;;;;;;9.07;3.40;;;-0.90;73.00;;;;;;4817909;29;20078;-87
2023/11/27 03:14:29;;;;;;;8.63;3.15;;;-1.00;73.20;;;;;;4832944;29;20038;-87
2023/11/27 03:16:56;;;;;;;7.68;2.95;;;-1.00;73.50;;;;;;4818087;29;20047;-87
2023/11/27 03:19:24;;;;;;;7.68;2.75;;;-1.00;73.50;;;;;;4818700;29;20050;-87
2023/11/27 03:22:01;;;;;;;10.00;4.13;;;-1.00;73.70;;;;;;4824903;29;20054;-87
2023/11/27 03:24:28;;;;;;;9.03;3.20;;;-1.00;73.20;;;;;;4817540;29;20058;-87
2023/11/27 03:26:55;;;;;;;9.35;3.70;;;-1.00;73.50;;;;;;4824043;29;20050;-85
2023/11/27 03:29:22;;;;;;;7.32;2.88;;;-1.00;73.80;;;;;;4809538;29;20098;-85
2023/11/27 03:31:49;;;;;;;9.40;3.08;;;-0.90;73.20;;;;;;4819363;29;20038;-85
2023/11/27 03:34:16;;;;;;;16.15;3.60;;;-1.00;73.40;;;;;;4813361;29;20049;-85
2023/11/27 03:36:43;;;;;;;8.07;2.67;;;-1.00;73.80;;;;;;4819778;29;20047;-86
2023/11/27 03:39:11;;;;;;;9.02;3.00;;;-0.90;73.90;;;;;;4829279;29;20053;-86
2023/11/27 03:41:38;;;;;;;9.32;3.42;;;-0.90;73.70;;;;;;4822703;29;20050;-87
2023/11/27 03:44:11;;;;;;;10.20;4.05;;;-0.80;74.20;;;;;;4837738;29;20050;-86
2023/11/27 03:46:38;;;;;;;12.60;4.28;;;-0.80;74.50;;;;;;4851010;29;20074;-88
2023/11/27 03:49:06;;;;;;;13.23;4.00;;;-0.70;74.20;;;;;;4813325;29;20084;-88
2023/11/27 03:51:33;;;;;;;10.60;3.75;;;-0.70;73.90;;;;;;4825466;29;20043;-87
2023/11/27 03:54:01;;;;;;;9.52;3.55;;;-0.70;74.00;;;;;;4824193;29;20076;-88
2023/11/27 03:56:28;;;;;;;10.73;4.13;;;-0.70;74.20;;;;;;4817813;29;20043;-88
2023/11/27 03:58:55;;;;;;;9.85;4.25;;;-0.60;74.40;;;;;;4813604;29;20046;-88
2023/11/27 04:01:22;;;;;;;9.30;3.90;;;-0.50;74.10;;;;;;4831005;29;20050;-89
2023/11/27 04:03:49;;;;;;;10.45;3.90;;;-0.50;74.00;;;;;;4818025;29;20061;-88
2023/11/27 04:06:31;;;;;;;11.82;5.22;;;-0.50;73.50;;;;;;4822386;29;20062;-90
2023/11/27 04:08:59;;;;;;;10.70;4.13;;;-0.50;74.00;;;;;;4817898;29;20050;-90
2023/11/27 04:11:27;;;;;;;10.55;4.15;;;-0.40;74.00;;;;;;4811823;29;20043;-91
2023/11/27 04:13:54;;;;;;;9.80;3.97;;;-0.40;74.00;;;;;;4817799;29;20079;-91
2023/11/27 04:16:22;;;;;;;13.50;4.65;;;-0.20;73.70;;;;;;4817544;29;20057;-90
2023/11/27 04:18:50;;;;;;;10.65;4.00;;;-0.30;73.20;;;;;;4818883;29;20137;-91
2023/11/27 04:21:20;;;;;;;10.55;4.55;;;-0.20;73.60;;;;;;4810186;29;20096;-91
2023/11/27 04:23:48;;;;;;;10.93;5.10;;;-0.30;73.70;;;;;;4822345;29;20077;-91
2023/11/27 04:26:21;;;;;;;11.67;4.93;;;-0.40;74.20;;;;;;4828895;29;20050;-91
2023/11/27 04:28:49;;;;;;;11.65;4.15;;;-0.40;74.10;;;;;;4833023;29;20154;-90
2023/11/27 04:31:16;;;;;;;13.10;4.70;;;-0.40;74.10;;;;;;4819426;29;20055;-91
2023/11/27 04:33:44;;;;;;;15.05;4.90;;;-0.30;74.30;;;;;;4812889;29;20047;-91
2023/11/27 04:36:11;;;;;;;12.18;5.30;;;-0.40;75.10;;;;;;4822132;29;20073;-91
2023/11/27 04:38:38;;;;;;;38.13;15.60;;;-0.30;75.30;;;;;;4841021;29;20561;-88
2023/11/27 04:41:06;;;;;;;13.13;4.82;;;-0.20;75.50;;;;;;4817397;29;20050;-88
2023/11/27 04:43:36;;;;;;;11.45;4.55;;;-0.10;75.30;;;;;;4819655;29;20058;-91
2023/11/27 04:46:07;;;;;;;12.43;4.43;;;0.00;75.20;;;;;;4822688;29;20066;-91
2023/11/27 04:48:34;;;;;;;12.90;4.70;;;0.00;75.20;;;;;;4812826;29;20106;-91
2023/11/27 04:51:02;;;;;;;11.73;4.63;;;0.00;75.20;;;;;;4828188;29;20075;-91
2023/11/27 04:53:35;;;;;;;15.60;4.90;;;0.00;75.40;;;;;;4829905;29;20569;-91
2023/11/27 04:56:03;;;;;;;14.60;5.28;;;0.00;75.60;;;;;;4820513;29;20074;-91
2023/11/27 04:58:30;;;;;;;13.93;5.30;;;0.00;75.90;;;;;;4816252;29;20059;-91
2023/11/27 05:00:58;;;;;;;12.32;5.55;;;0.10;76.10;;;;;;4840278;29;20571;-91
2023/11/27 05:03:27;;;;;;;15.03;5.37;;;0.20;75.80;;;;;;4833646;29;20504;-90
2023/11/27 05:05:58;;;;;;;11.93;5.43;;;0.30;76.00;;;;;;4811387;29;20047;-90
2023/11/27 05:08:26;;;;;;;11.93;5.18;;;0.30;75.80;;;;;;4821332;29;20054;-92
2023/11/27 05:10:53;;;;;;;12.40;4.78;;;0.40;75.40;;;;;;4825855;29;20421;-92
2023/11/27 05:13:21;;;;;;;10.80;4.72;;;0.40;75.30;;;;;;4822585;29;20496;-92
2023/11/27 05:15:48;;;;;;;13.27;4.50;;;0.40;75.00;;;;;;4807970;29;20535;-90
2023/11/27 05:18:16;;;;;;;11.88;4.68;;;0.40;75.10;;;;;;4804701;29;20113;-91
2023/11/27 05:20:43;;;;;;;12.90;4.70;;;0.40;75.00;;;;;;4835924;29;20508;-92
2023/11/27 05:23:10;;;;;;;11.10;4.55;;;0.50;74.90;;;;;;4825130;29;20092;-90
2023/11/27 05:25:37;;;;;;;11.70;4.97;;;0.60;74.80;;;;;;4846900;29;20088;-90
2023/11/27 05:28:05;;;;;;;13.30;5.07;;;0.70;74.70;;;;;;4819297;29;20047;-90
2023/11/27 05:30:32;;;;;;;13.77;4.45;;;0.70;74.50;;;;;;4824928;29;20051;-89
2023/11/27 05:32:59;;;;;;;13.32;5.05;;;0.90;74.40;;;;;;4810768;29;20047;-89
2023/11/27 05:35:27;;;;;;;12.52;4.18;;;0.90;74.30;;;;;;4819681;29;20050;-88
2023/11/27 05:37:54;;;;;;;13.07;4.50;;;0.90;74.50;;;;;;4847554;29;20064;-89
2023/11/27 05:40:21;;;;;;;15.37;5.13;;;0.90;74.40;;;;;;4850848;29;20053;-89
2023/11/27 05:42:49;;;;;;;13.52;4.75;;;1.00;74.40;;;;;;4807910;29;20141;-89
2023/11/27 05:45:17;;;;;;;14.15;5.93;;;0.90;74.60;;;;;;4843610;29;20058;-88
2023/11/27 05:47:44;;;;;;;13.60;5.65;;;1.00;74.80;;;;;;4839315;29;20111;-88
2023/11/27 05:50:15;;;;;;;12.85;5.28;;;1.00;74.40;;;;;;4826215;29;20078;-88
2023/11/27 05:52:42;;;;;;;11.63;4.97;;;1.10;74.70;;;;;;4818974;29;20051;-88
2023/11/27 05:55:09;;;;;;;15.10;5.03;;;1.20;74.70;;;;;;4836399;29;20051;-88
2023/11/27 05:57:36;;;;;;;11.38;4.10;;;1.10;74.80;;;;;;4826226;29;20046;-88
2023/11/27 06:00:05;;;;;;;11.68;4.25;;;1.10;75.40;;;;;;4816601;29;20122;-88
2023/11/27 06:02:38;;;;;;;9.95;4.40;;;1.10;75.80;;;;;;4824987;29;20133;-89
2023/11/27 06:05:06;;;;;;;10.00;4.20;;;1.10;76.20;;;;;;4823797;29;20106;-89
2023/11/27 06:07:34;;;;;;;10.52;4.55;;;1.10;76.30;;;;;;4813048;29;20072;-88
2023/11/27 06:10:07;;;;;;;11.00;4.88;;;1.20;76.20;;;;;;4842415;29;20523;-89
2023/11/27 06:12:34;;;;;;;7.95;3.30;;;1.20;76.20;;;;;;4851878;29;20054;-89
2023/11/27 06:15:05;;;;;;;10.48;4.13;;;1.10;76.40;;;;;;4809894;29;20043;-88
2023/11/27 06:17:32;;;;;;;13.40;6.00;;;1.20;76.30;;;;;;4821996;29;20050;-88
2023/11/27 06:19:59;;;;;;;11.90;5.30;;;1.20;76.10;;;;;;4821928;29;20493;-88
2023/11/27 06:22:26;;;;;;;14.48;5.35;;;1.30;76.00;;;;;;4822265;29;20447;-89
2023/11/27 06:24:53;;;;;;;11.60;4.65;;;1.30;76.20;;;;;;4809654;29;20046;-88
2023/11/27 06:27:23;;;;;;;14.05;4.78;;;1.30;76.00;;;;;;4850492;29;20061;-88
2023/11/27 06:29:50;;;;;;;10.93;4.73;;;1.20;76.10;;;;;;4837349;29;20063;-88
2023/11/27 06:32:20;;;;;;;12.18;5.00;;;1.30;76.20;;;;;;4837607;29;20134;-88
2023/11/27 06:34:47;;;;;;;15.32;5.05;;;1.20;76.20;;;;;;4826847;29;20054;-88
2023/11/27 06:37:15;;;;;;;11.57;5.57;;;1.20;76.20;;;;;;4817170;29;20078;-88
2023/11/27 06:39:42;;;;;;;10.77;5.00;;;1.20;76.20;;;;;;4829721;29;20111;-88
2023/11/27 06:42:12;;;;;;;11.23;5.17;;;1.30;76.20;;;;;;4846657;29;20548;-87
2023/11/27 06:44:39;;;;;;;11.63;5.47;;;1.30;76.30;;;;;;4826196;29;20046;-91
2023/11/27 06:47:07;;;;;;;12.15;5.30;;;1.30;76.40;;;;;;4820664;29;20053;-90
2023/11/27 06:49:34;;;;;;;13.57;5.80;;;1.20;76.30;;;;;;4821420;29;20131;-90
2023/11/27 06:52:01;;;;;;;13.90;5.43;;;1.00;76.60;;;;;;4821099;29;20050;-90
2023/11/27 06:54:28;;;;;;;16.47;6.87;;;1.00;77.10;;;;;;4820523;29;20043;-90
2023/11/27 06:56:56;;;;;;;16.48;6.43;;;0.90;77.20;;;;;;4823587;29;20038;-88
2023/11/27 06:59:23;;;;;;;16.83;6.68;;;0.90;77.20;;;;;;4824566;29;20081;-88
2023/11/27 07:01:50;;;;;;;13.02;6.28;;;0.90;77.70;;;;;;4826497;29;20046;-87
2023/11/27 07:04:17;;;;;;;14.68;6.10;;;0.90;77.70;;;;;;4821606;29;20114;-87
2023/11/27 07:06:45;;;;;;;16.43;7.27;;;0.80;77.70;;;;;;4837231;29;20589;-88
2023/11/27 07:09:15;;;;;;;16.00;7.60;;;0.80;77.90;;;;;;4848498;29;20051;-85
2023/11/27 07:11:42;;;;;;;15.02;7.03;;;0.80;77.90;;;;;;4820707;29;20070;-85
2023/11/27 07:14:08;;;;;;;18.27;8.55;;;0.90;77.50;;;;;;4835517;29;20103;-85
2023/11/27 07:16:37;;;;;;;19.63;8.07;;;0.90;77.60;;;;;;4809358;29;20133;-87
2023/11/27 07:19:05;;;;;;;17.73;7.40;;;0.90;77.50;;;;;;4850157;29;20050;-85
2023/11/27 07:21:32;;;;;;;18.95;8.73;;;1.00;77.50;;;;;;4835306;29;20419;-86
2023/11/27 07:23:59;;;;;;;20.75;9.10;;;1.00;77.00;;;;;;4834285;29;20069;-85
2023/11/27 07:26:29;;;;;;;19.95;8.57;;;0.90;77.40;;;;;;4834784;29;20133;-85
2023/11/27 07:28:57;;;;;;;18.55;8.20;;;1.00;77.70;;;;;;4819565;29;20050;-85
2023/11/27 07:31:31;;;;;;;21.57;9.83;;;1.10;77.30;;;;;;4814943;29;20042;-88
2023/11/27 07:34:00;;;;;;;20.35;8.80;;;1.20;77.20;;;;;;4847382;29;20377;-86
2023/11/27 07:36:27;;;;;;;20.38;9.48;;;1.20;76.70;;;;;;4843456;29;20492;-87
2023/11/27 07:38:55;;;;;;;22.40;9.82;;;1.30;76.60;;;;;;4818207;29;20133;-85
2023/11/27 07:41:23;;;;;;;21.25;9.30;;;1.40;76.30;;;;;;4820671;29;20049;-84
2023/11/27 07:43:50;;;;;;;22.87;9.40;;;1.40;75.80;;;;;;4838163;29;20082;-85
2023/11/27 07:46:18;;;;;;;20.60;8.73;;;1.40;75.60;;;;;;4821520;29;20050;-87
2023/11/27 07:48:46;;;;;;;19.00;8.65;;;1.40;74.80;;;;;;4817663;29;20059;-86
2023/11/27 07:51:13;;;;;;;17.92;8.90;;;1.40;75.20;;;;;;4823173;29;20050;-86
2023/11/27 07:53:40;;;;;;;22.27;9.10;;;1.40;74.90;;;;;;4832387;29;20050;-86
2023/11/27 07:56:08;;;;;;;15.87;7.40;;;1.40;74.40;;;;;;4822276;29;20085;-85
2023/11/27 07:58:36;;;;;;;20.95;9.68;;;1.40;74.40;;;;;;4823778;29;20062;-85
2023/11/27 08:01:04;;;;;;;20.73;9.00;;;1.40;74.70;;;;;;4824162;29;20047;-84
2023/11/27 08:03:31;;;;;;;21.95;9.43;;;1.30;74.60;;;;;;4837309;29;20505;-85
2023/11/27 08:06:02;;;;;;;21.98;9.35;;;1.20;74.70;;;;;;4818047;29;20058;-85
2023/11/27 08:08:29;;;;;;;21.17;9.73;;;1.30;75.20;;;;;;4837909;29;20050;-85
2023/11/27 08:10:58;;;;;;;18.35;8.35;;;1.40;74.70;;;;;;4832758;29;20043;-85
2023/11/27 08:13:25;;;;;;;21.58;9.00;;;1.40;74.40;;;;;;4830378;29;20103;-85
2023/11/27 08:15:53;;;;;;;17.73;8.48;;;1.40;74.40;;;;;;4821251;29;20069;-86
2023/11/27 08:18:21;;;;;;;21.27;9.18;;;1.50;73.90;;;;;;4819014;29;20076;-86
2023/11/27 08:20:49;;;;;;;21.53;9.30;;;1.50;74.00;;;;;;4818357;29;20497;-85
2023/11/27 08:23:17;;;;;;;19.13;8.60;;;1.60;73.90;;;;;;4819806;29;20386;-86
2023/11/27 08:25:44;;;;;;;16.98;8.00;;;1.70;73.30;;;;;;4845200;29;20053;-83
2023/11/27 08:28:12;;;;;;;21.73;9.25;;;1.70;73.20;;;;;;4827578;29;20051;-84
2023/11/27 08:30:41;;;;;;;19.40;8.63;;;1.80;73.20;;;;;;4831237;29;20043;-83
2023/11/27 08:33:09;;;;;;;17.53;7.87;;;1.90;73.00;;;;;;4827407;29;20054;-83
2023/11/27 08:35:36;;;;;;;20.15;8.80;;;2.10;72.60;;;;;;4821487;29;20049;-82
2023/11/27 08:38:04;;;;;;;21.35;10.90;;;2.20;72.40;;;;;;4819639;29;20073;-84
2023/11/27 08:40:31;;;;;;;18.17;8.73;;;2.20;72.10;;;;;;4820988;29;20046;-84
2023/11/27 08:43:00;;;;;;;19.10;9.50;;;2.20;71.40;;;;;;4818770;29;20133;-84
2023/11/27 08:45:27;;;;;;;19.57;9.53;;;2.10;71.60;;;;;;4814399;29;20061;-85
2023/11/27 08:47:55;;;;;;;17.05;7.40;;;2.20;71.80;;;;;;4831245;29;20050;-84
2023/11/27 08:50:25;;;;;;;18.15;8.48;;;2.40;71.40;;;;;;4819021;29;20046;-85
2023/11/27 08:52:57;;;;;;;23.00;8.68;;;2.30;71.30;;;;;;4825371;29;20051;-84
2023/11/27 08:55:31;;;;;;;17.73;7.60;;;2.40;71.60;;;;;;4828544;29;20057;-84
2023/11/27 08:58:02;;;;;;;17.17;8.07;;;2.50;71.30;;;;;;4807821;29;20042;-85
2023/11/27 09:00:34;;;;;;;17.90;7.93;;;2.50;70.90;;;;;;4817673;29;20064;-84
2023/11/27 09:03:05;;;;;;;17.38;7.28;;;2.60;70.80;;;;;;4827278;29;20050;-85
2023/11/27 09:05:33;;;;;;;15.75;7.88;;;2.60;70.40;;;;;;4816295;29;20074;-87
2023/11/27 09:08:05;;;;;;;15.30;6.75;;;2.60;69.80;;;;;;4841588;29;20058;-84
2023/11/27 09:10:35;;;;;;;15.53;7.03;;;2.60;69.50;;;;;;4831849;29;20050;-85
2023/11/27 09:13:05;;;;;;;16.48;7.88;;;2.50;69.60;;;;;;4819473;29;20043;-85
2023/11/27 09:15:36;;;;;;;15.95;7.15;;;2.50;69.90;;;;;;4809277;29;20046;-85
2023/11/27 09:18:03;;;;;;;17.33;7.85;;;2.40;69.70;;;;;;4811007;29;20125;-84
2023/11/27 09:20:30;;;;;;;14.88;7.35;;;2.40;69.90;;;;;;4828442;29;20042;-84
2023/11/27 09:22:57;;;;;;;16.90;7.30;;;2.30;69.90;;;;;;4827108;29;20062;-90
2023/11/27 09:25:25;;;;;;;16.92;7.53;;;2.20;70.20;;;;;;4806455;29;20046;-89
2023/11/27 09:27:52;;;;;;;15.98;7.50;;;2.20;70.20;;;;;;4827474;29;20081;-88
2023/11/27 09:30:20;;;;;;;17.10;7.53;;;2.20;70.50;;;;;;4818293;29;20047;-87
2023/11/27 09:32:48;;;;;;;18.60;8.48;;;2.20;70.70;;;;;;4813363;29;20519;-88
2023/11/27 09:35:15;;;;;;;17.83;7.20;;;2.30;70.50;;;;;;4846168;29;20469;-84
2023/11/27 09:37:43;;;;;;;16.25;7.40;;;2.30;70.40;;;;;;4818028;29;20130;-90
2023/11/27 09:40:12;;;;;;;21.92;8.95;;;2.40;70.30;;;;;;4818195;29;20039;-86
2023/11/27 09:42:40;;;;;;;19.38;9.25;;;2.40;70.30;;;;;;4810791;29;20146;-87
2023/11/27 09:45:18;;;;;;;17.75;7.85;;;2.50;70.50;;;;;;4825806;29;20059;-87
2023/11/27 09:47:50;;;;;;;15.53;6.63;;;2.60;70.40;;;;;;4835618;29;20149;-88
2023/11/27 09:50:20;;;;;;;19.55;9.45;;;2.60;69.70;;;;;;4845442;29;20070;-90
2023/11/27 09:53:02;;;;;;;20.85;9.00;;;2.70;69.50;;;;;;4825394;29;20114;-88
2023/11/27 09:55:34;;;;;;;24.15;10.77;;;2.70;69.50;;;;;;4820352;29;20055;-87
2023/11/27 09:58:05;;;;;;;24.63;10.70;;;2.70;69.80;;;;;;4822019;29;20129;-87
2023/11/27 10:00:33;;;;;;;23.50;10.70;;;2.80;70.00;;;;;;4806789;29;20046;-87
2023/11/27 10:03:02;;;;;;;20.92;9.15;;;2.90;70.00;;;;;;4825099;29;20051;-87
2023/11/27 10:05:30;;;;;;;17.58;8.88;;;3.00;69.90;;;;;;4814702;29;20117;-87
2023/11/27 10:07:58;;;;;;;22.15;11.55;;;3.00;69.20;;;;;;4821939;29;20062;-87
2023/11/27 10:10:28;;;;;;;20.65;10.20;;;3.00;69.50;;;;;;4817647;29;20050;-88
2023/11/27 10:13:06;;;;;;;17.60;8.57;;;3.10;69.80;;;;;;4819928;29;20150;-88
2023/11/27 10:15:48;;;;;;;17.40;7.38;;;3.20;68.90;;;;;;4833205;29;20046;-88
2023/11/27 10:18:18;;;;;;;17.27;8.02;;;3.30;68.70;;;;;;4818771;29;20050;-88
2023/11/27 10:20:49;;;;;;;17.98;8.77;;;3.30;69.30;;;;;;4820231;29;20595;-88
2023/11/27 10:23:17;;;;;;;18.83;8.70;;;3.20;69.40;;;;;;4820898;29;20141;-88
2023/11/27 10:25:45;;;;;;;18.63;9.10;;;3.20;69.50;;;;;;4831503;29;20121;-87
2023/11/27 10:28:12;;;;;;;22.85;9.35;;;3.20;69.80;;;;;;4819925;29;20054;-87
2023/11/27 10:30:45;;;;;;;21.63;9.90;;;3.20;70.00;;;;;;4819854;29;20058;-88
2023/11/27 10:33:12;;;;;;;19.48;9.82;;;3.20;69.90;;;;;;4817937;29;20078;-87
2023/11/27 10:35:41;;;;;;;21.20;9.18;;;3.20;70.20;;;;;;4825369;29;20043;-88
2023/11/27 10:38:16;;;;;;;16.30;8.07;;;3.30;70.10;;;;;;4812551;29;20130;-87
2023/11/27 10:40:43;;;;;;;23.75;10.25;;;3.20;70.10;;;;;;4809791;29;20054;-87
2023/11/27 10:43:11;;;;;;;17.98;9.15;;;3.20;70.10;;;;;;4818678;29;20055;-88
2023/11/27 10:45:40;;;;;;;19.60;9.13;;;3.20;69.80;;;;;;4833837;29;20051;-88
2023/11/27 10:48:09;;;;;;;19.23;9.32;;;3.20;69.60;;;;;;4821443;29;20054;-87
2023/11/27 10:50:41;;;;;;;22.90;11.10;;;3.30;69.40;;;;;;4830357;29;20077;-88
2023/11/27 10:53:10;;;;;;;22.48;10.85;;;3.20;69.30;;;;;;4813994;29;20061;-88
2023/11/27 10:55:38;;;;;;;24.48;10.77;;;3.10;69.50;;;;;;4824981;29;20043;-88
2023/11/27 10:58:08;;;;;;;24.67;11.63;;;3.10;69.80;;;;;;4816784;29;20535;-88
2023/11/27 11:00:58;;;;;;;24.95;11.35;;;3.10;70.20;;;;;;4810770;29;20050;-87
2023/11/27 11:03:26;;;;;;;23.23;10.80;;;3.10;70.10;;;;;;4824133;29;20104;-87
2023/11/27 11:05:56;;;;;;;24.77;11.00;;;3.00;69.90;;;;;;4816919;29;20061;-87
2023/11/27 11:08:26;;;;;;;22.02;11.00;;;3.00;69.90;;;;;;4821855;29;20100;-87
2023/11/27 11:10:55;;;;;;;25.48;10.60;;;2.90;70.60;;;;;;4822954;29;20103;-87
2023/11/27 11:13:25;;;;;;;23.17;12.68;;;2.90;70.50;;;;;;4832660;29;20050;-87
2023/11/27 11:16:14;;;;;;;24.87;12.03;;;2.90;70.50;;;;;;4819406;29;20054;-87
2023/11/27 11:18:57;;;;;;;25.20;11.63;;;2.90;70.40;;;;;;4822919;29;20051;-86
2023/11/27 11:22:17;;;;;;;27.17;12.80;;;2.90;70.70;;;;;;4815510;29;20046;-83
2023/11/27 11:25:09;;;;;;;23.60;12.20;;;2.90;70.50;;;;;;4814821;29;20493;-86
2023/11/27 11:28:05;;;;;;;26.67;12.30;;;2.90;70.70;;;;;;4802379;29;20129;-86
2023/11/27 11:30:34;;;;;;;28.93;12.73;;;3.00;70.40;;;;;;4817187;29;20058;-85
2023/11/27 11:33:17;;;;;;;26.95;12.65;;;3.00;70.50;;;;;;4809235;29;20045;-86
2023/11/27 11:35:49;;;;;;;27.23;12.18;;;3.00;70.20;;;;;;4822175;29;20042;-86
2023/11/27 11:38:20;;;;;;;28.85;13.50;;;3.00;70.10;;;;;;4820774;29;20125;-85
2023/11/27 11:40:48;;;;;;;28.83;12.93;;;2.90;70.10;;;;;;4814944;29;20505;-86
2023/11/27 11:43:18;;;;;;;26.87;12.77;;;2.80;70.50;;;;;;4819286;29;20061;-85
2023/11/27 11:45:49;;;;;;;28.02;12.38;;;2.80;70.60;;;;;;4816343;29;20059;-86
2023/11/27 11:48:18;;;;;;;28.98;13.07;;;2.70;70.50;;;;;;4821360;29;20047;-85
2023/11/27 11:50:47;;;;;;;29.15;13.40;;;2.60;71.00;;;;;;4830255;29;20047;-86
2023/11/27 11:53:14;;;;;;;34.15;15.23;;;2.60;71.10;;;;;;4815630;29;20049;-86
2023/11/27 11:55:42;;;;;;;26.13;12.50;;;2.70;71.20;;;;;;4805586;29;20130;-86
2023/11/27 11:58:29;;;;;;;29.98;13.30;;;2.70;71.20;;;;;;4821473;29;20138;-86
2023/11/27 12:01:02;;;;;;;31.40;13.13;;;2.80;70.60;;;;;;4822197;29;20401;-86
2023/11/27 12:03:31;;;;;;;31.40;13.48;;;2.70;70.50;;;;;;4821427;29;20466;-86
2023/11/27 12:06:02;;;;;;;30.48;14.75;;;2.50;70.70;;;;;;4819106;29;20066;-87
2023/11/27 12:08:31;;;;;;;27.93;12.97;;;2.50;71.20;;;;;;4820368;29;20130;-89
2023/11/27 12:11:00;;;;;;;27.95;12.90;;;2.50;71.40;;;;;;4831106;29;20424;-88
2023/11/27 12:13:33;;;;;;;25.30;12.10;;;2.50;71.40;;;;;;4823797;29;20134;-88
2023/11/27 12:16:12;;;;;;;29.92;12.90;;;2.50;71.90;;;;;;4823862;29;20075;-87
2023/11/27 12:18:43;;;;;;;27.48;12.27;;;2.50;72.00;;;;;;4814352;29;20054;-87
2023/11/27 12:21:14;;;;;;;25.63;12.13;;;2.70;71.90;;;;;;4831742;29;20051;-88
2023/11/27 12:23:43;;;;;;;24.48;10.43;;;2.70;71.40;;;;;;4824349;29;20054;-88
2023/11/27 12:26:22;;;;;;;23.70;11.45;;;2.70;71.10;;;;;;4818385;29;20141;-88
2023/11/27 12:28:50;;;;;;;24.50;11.25;;;2.70;71.10;;;;;;4820694;29;20564;-88
2023/11/27 12:31:18;;;;;;;23.23;11.15;;;2.70;71.20;;;;;;4816254;29;20043;-88
2023/11/27 12:33:49;;;;;;;23.93;11.80;;;2.70;71.40;;;;;;4818610;29;20130;-88
2023/11/27 12:36:22;;;;;;;23.75;10.50;;;2.70;71.40;;;;;;4808174;29;20595;-88
2023/11/27 12:38:53;;;;;;;22.98;10.52;;;2.60;71.60;;;;;;4817563;29;20047;-88
2023/11/27 12:41:31;;;;;;;23.98;10.63;;;2.60;71.30;;;;;;4819798;29;20454;-88
2023/11/27 12:44:20;;;;;;;21.33;10.57;;;2.50;71.50;;;;;;4819302;29;20055;-88
2023/11/27 12:46:49;;;;;;;23.57;11.33;;;2.70;72.00;;;;;;4819013;29;20050;-88
2023/11/27 12:49:26;;;;;;;24.10;11.07;;;2.70;71.60;;;;;;4819739;29;20504;-88
2023/11/27 12:51:57;;;;;;;21.08;10.80;;;2.80;71.50;;;;;;4820581;29;20077;-88
2023/11/27 12:54:27;;;;;;;21.92;10.65;;;2.70;71.30;;;;;;4823380;29;20053;-88